sensor_id;sensor_type;location;lat;lon;timestamp;P1;durP1;ratioP1;P2;durP2;ratioP2
38783;SDS011;24531;45.502;12.238;2024-01-30T00:01:41;87.75;;;44.05;;
38783;SDS011;24531;45.502;12.238;2024-01-30T00:04:07;89.28;;;44.20;;
38783;SDS011;24531;45.502;12.238;2024-01-30T00:06:32;96.22;;;47.80;;
38783;SDS011;24531;45.502;12.238;2024-01-30T00:08:58;88.88;;;45.13;;
38783;SDS011;24531;45.502;12.238;2024-01-30T00:11:24;112.57;;;54.10;;
38783;SDS011;24531;45.502;12.238;2024-01-30T00:13:53;103.65;;;54.47;;
38783;SDS011;24531;45.502;12.238;2024-01-30T00:16:21;95.68;;;48.55;;
38783;SDS011;24531;45.502;12.238;2024-01-30T00:18:49;92.93;;;47.70;;
38783;SDS011;24531;45.502;12.238;2024-01-30T00:21:15;87.40;;;43.72;;
38783;SDS011;24531;45.502;12.238;2024-01-30T00:23:40;85.65;;;43.13;;
38783;SDS011;24531;45.502;12.238;2024-01-30T00:26:06;89.13;;;44.45;;
38783;SDS011;24531;45.502;12.238;2024-01-30T00:28:31;88.68;;;44.17;;
38783;SDS011;24531;45.502;12.238;2024-01-30T00:30:57;92.22;;;45.45;;
38783;SDS011;24531;45.502;12.238;2024-01-30T00:33:23;95.93;;;46.83;;
38783;SDS011;24531;45.502;12.238;2024-01-30T00:35:48;84.05;;;44.72;;
38783;SDS011;24531;45.502;12.238;2024-01-30T00:38:14;85.05;;;45.20;;
38783;SDS011;24531;45.502;12.238;2024-01-30T00:40:39;86.20;;;44.40;;
38783;SDS011;24531;45.502;12.238;2024-01-30T00:43:05;87.13;;;43.60;;
38783;SDS011;24531;45.502;12.238;2024-01-30T00:45:31;83.85;;;46.05;;
38783;SDS011;24531;45.502;12.238;2024-01-30T00:47:56;84.93;;;43.50;;
38783;SDS011;24531;45.502;12.238;2024-01-30T00:50:22;81.65;;;41.03;;
38783;SDS011;24531;45.502;12.238;2024-01-30T00:52:47;82.93;;;44.05;;
38783;SDS011;24531;45.502;12.238;2024-01-30T00:55:13;82.57;;;41.85;;
38783;SDS011;24531;45.502;12.238;2024-01-30T00:57:39;88.18;;;44.40;;
38783;SDS011;24531;45.502;12.238;2024-01-30T01:00:07;82.22;;;43.33;;
38783;SDS011;24531;45.502;12.238;2024-01-30T01:02:34;79.63;;;41.00;;
38783;SDS011;24531;45.502;12.238;2024-01-30T01:05:00;80.57;;;42.40;;
38783;SDS011;24531;45.502;12.238;2024-01-30T01:07:26;77.57;;;41.28;;
38783;SDS011;24531;45.502;12.238;2024-01-30T01:09:52;75.53;;;42.38;;
38783;SDS011;24531;45.502;12.238;2024-01-30T01:12:17;80.65;;;41.15;;
38783;SDS011;24531;45.502;12.238;2024-01-30T01:14:43;78.53;;;40.17;;
38783;SDS011;24531;45.502;12.238;2024-01-30T01:17:09;77.15;;;40.53;;
38783;SDS011;24531;45.502;12.238;2024-01-30T01:19:34;73.35;;;39.75;;
38783;SDS011;24531;45.502;12.238;2024-01-30T01:22:00;65.40;;;38.40;;
38783;SDS011;24531;45.502;12.238;2024-01-30T01:24:25;81.93;;;42.17;;
38783;SDS011;24531;45.502;12.238;2024-01-30T01:26:51;78.13;;;41.70;;
38783;SDS011;24531;45.502;12.238;2024-01-30T01:29:17;81.15;;;39.38;;
38783;SDS011;24531;45.502;12.238;2024-01-30T01:31:42;75.45;;;42.45;;
38783;SDS011;24531;45.502;12.238;2024-01-30T01:34:09;75.88;;;39.80;;
38783;SDS011;24531;45.502;12.238;2024-01-30T01:36:35;70.55;;;40.35;;
38783;SDS011;24531;45.502;12.238;2024-01-30T01:39:01;75.63;;;40.65;;
38783;SDS011;24531;45.502;12.238;2024-01-30T01:41:30;69.45;;;39.33;;
38783;SDS011;24531;45.502;12.238;2024-01-30T01:43:59;73.55;;;37.78;;
38783;SDS011;24531;45.502;12.238;2024-01-30T01:46:30;69.90;;;37.65;;
38783;SDS011;24531;45.502;12.238;2024-01-30T01:48:57;71.22;;;37.10;;
38783;SDS011;24531;45.502;12.238;2024-01-30T01:51:24;66.18;;;38.88;;
38783;SDS011;24531;45.502;12.238;2024-01-30T01:53:56;65.03;;;35.63;;
38783;SDS011;24531;45.502;12.238;2024-01-30T01:56:24;70.63;;;38.60;;
38783;SDS011;24531;45.502;12.238;2024-01-30T01:58:51;70.63;;;38.03;;
38783;SDS011;24531;45.502;12.238;2024-01-30T02:01:19;72.18;;;37.95;;
38783;SDS011;24531;45.502;12.238;2024-01-30T02:03:46;69.88;;;38.65;;
38783;SDS011;24531;45.502;12.238;2024-01-30T02:06:15;65.75;;;37.92;;
38783;SDS011;24531;45.502;12.238;2024-01-30T02:08:41;65.55;;;37.45;;
38783;SDS011;24531;45.502;12.238;2024-01-30T02:11:07;62.53;;;36.28;;
38783;SDS011;24531;45.502;12.238;2024-01-30T02:13:33;61.03;;;35.92;;
38783;SDS011;24531;45.502;12.238;2024-01-30T02:15:59;62.97;;;36.28;;
38783;SDS011;24531;45.502;12.238;2024-01-30T02:18:26;57.90;;;34.92;;
38783;SDS011;24531;45.502;12.238;2024-01-30T02:20:53;56.17;;;33.00;;
38783;SDS011;24531;45.502;12.238;2024-01-30T02:23:20;55.00;;;35.17;;
38783;SDS011;24531;45.502;12.238;2024-01-30T02:25:46;57.50;;;34.03;;
38783;SDS011;24531;45.502;12.238;2024-01-30T02:28:15;62.70;;;34.72;;
38783;SDS011;24531;45.502;12.238;2024-01-30T02:30:42;59.10;;;33.55;;
38783;SDS011;24531;45.502;12.238;2024-01-30T02:33:08;59.67;;;34.97;;
38783;SDS011;24531;45.502;12.238;2024-01-30T02:35:34;56.67;;;34.92;;
38783;SDS011;24531;45.502;12.238;2024-01-30T02:38:00;62.40;;;35.58;;
38783;SDS011;24531;45.502;12.238;2024-01-30T02:40:25;66.68;;;36.83;;
38783;SDS011;24531;45.502;12.238;2024-01-30T02:42:51;59.70;;;34.85;;
38783;SDS011;24531;45.502;12.238;2024-01-30T02:45:17;65.80;;;36.85;;
38783;SDS011;24531;45.502;12.238;2024-01-30T02:47:42;64.95;;;35.13;;
38783;SDS011;24531;45.502;12.238;2024-01-30T02:50:08;68.63;;;35.55;;
38783;SDS011;24531;45.502;12.238;2024-01-30T02:52:34;59.15;;;34.13;;
38783;SDS011;24531;45.502;12.238;2024-01-30T02:55:00;56.88;;;34.30;;
38783;SDS011;24531;45.502;12.238;2024-01-30T02:57:26;58.67;;;32.63;;
38783;SDS011;24531;45.502;12.238;2024-01-30T02:59:52;60.30;;;34.70;;
38783;SDS011;24531;45.502;12.238;2024-01-30T03:02:18;57.75;;;33.58;;
38783;SDS011;24531;45.502;12.238;2024-01-30T03:04:43;57.80;;;34.00;;
38783;SDS011;24531;45.502;12.238;2024-01-30T03:07:09;54.17;;;32.95;;
38783;SDS011;24531;45.502;12.238;2024-01-30T03:09:36;60.92;;;34.38;;
38783;SDS011;24531;45.502;12.238;2024-01-30T03:12:01;57.80;;;34.97;;
38783;SDS011;24531;45.502;12.238;2024-01-30T03:14:30;60.53;;;34.28;;
38783;SDS011;24531;45.502;12.238;2024-01-30T03:16:56;56.95;;;32.10;;
38783;SDS011;24531;45.502;12.238;2024-01-30T03:19:22;56.33;;;32.83;;
38783;SDS011;24531;45.502;12.238;2024-01-30T03:21:48;56.85;;;32.67;;
38783;SDS011;24531;45.502;12.238;2024-01-30T03:24:13;55.53;;;31.45;;
38783;SDS011;24531;45.502;12.238;2024-01-30T03:26:39;54.75;;;31.35;;
38783;SDS011;24531;45.502;12.238;2024-01-30T03:29:04;60.20;;;32.33;;
38783;SDS011;24531;45.502;12.238;2024-01-30T03:31:30;52.35;;;31.90;;
38783;SDS011;24531;45.502;12.238;2024-01-30T03:33:56;54.35;;;32.08;;
38783;SDS011;24531;45.502;12.238;2024-01-30T03:36:21;50.95;;;29.83;;
38783;SDS011;24531;45.502;12.238;2024-01-30T03:38:47;51.40;;;31.98;;
38783;SDS011;24531;45.502;12.238;2024-01-30T03:41:12;53.88;;;31.73;;
38783;SDS011;24531;45.502;12.238;2024-01-30T03:43:38;47.78;;;29.13;;
38783;SDS011;24531;45.502;12.238;2024-01-30T03:46:04;47.58;;;28.55;;
38783;SDS011;24531;45.502;12.238;2024-01-30T03:48:29;53.25;;;28.77;;
38783;SDS011;24531;45.502;12.238;2024-01-30T03:50:55;49.78;;;28.90;;
38783;SDS011;24531;45.502;12.238;2024-01-30T03:53:21;51.67;;;30.42;;
38783;SDS011;24531;45.502;12.238;2024-01-30T03:55:46;47.78;;;30.77;;
38783;SDS011;24531;45.502;12.238;2024-01-30T03:58:12;56.50;;;29.95;;
38783;SDS011;24531;45.502;12.238;2024-01-30T04:00:38;48.08;;;28.15;;
38783;SDS011;24531;45.502;12.238;2024-01-30T04:03:03;44.67;;;28.55;;
38783;SDS011;24531;45.502;12.238;2024-01-30T04:05:30;49.58;;;28.83;;
38783;SDS011;24531;45.502;12.238;2024-01-30T04:07:55;41.83;;;28.00;;
38783;SDS011;24531;45.502;12.238;2024-01-30T04:10:21;51.20;;;28.40;;
38783;SDS011;24531;45.502;12.238;2024-01-30T04:12:46;38.75;;;26.42;;
38783;SDS011;24531;45.502;12.238;2024-01-30T04:15:12;49.45;;;28.55;;
38783;SDS011;24531;45.502;12.238;2024-01-30T04:17:39;48.13;;;26.15;;
38783;SDS011;24531;45.502;12.238;2024-01-30T04:20:05;44.13;;;26.00;;
38783;SDS011;24531;45.502;12.238;2024-01-30T04:22:31;44.75;;;27.85;;
38783;SDS011;24531;45.502;12.238;2024-01-30T04:24:56;42.00;;;25.83;;
38783;SDS011;24531;45.502;12.238;2024-01-30T04:27:22;43.45;;;25.58;;
38783;SDS011;24531;45.502;12.238;2024-01-30T04:29:48;44.88;;;28.80;;
38783;SDS011;24531;45.502;12.238;2024-01-30T04:32:13;44.22;;;26.65;;
38783;SDS011;24531;45.502;12.238;2024-01-30T04:34:39;46.38;;;26.10;;
38783;SDS011;24531;45.502;12.238;2024-01-30T04:37:05;48.58;;;28.27;;
38783;SDS011;24531;45.502;12.238;2024-01-30T04:39:32;44.90;;;28.08;;
38783;SDS011;24531;45.502;12.238;2024-01-30T04:41:58;44.58;;;26.77;;
38783;SDS011;24531;45.502;12.238;2024-01-30T04:44:24;49.17;;;27.65;;
38783;SDS011;24531;45.502;12.238;2024-01-30T04:46:50;44.38;;;27.60;;
38783;SDS011;24531;45.502;12.238;2024-01-30T04:49:15;45.20;;;26.77;;
38783;SDS011;24531;45.502;12.238;2024-01-30T04:51:41;40.83;;;27.40;;
38783;SDS011;24531;45.502;12.238;2024-01-30T04:54:06;42.92;;;25.75;;
38783;SDS011;24531;45.502;12.238;2024-01-30T04:56:32;38.97;;;25.45;;
38783;SDS011;24531;45.502;12.238;2024-01-30T04:58:58;41.85;;;26.13;;
38783;SDS011;24531;45.502;12.238;2024-01-30T05:01:24;38.75;;;24.95;;
38783;SDS011;24531;45.502;12.238;2024-01-30T05:03:49;38.10;;;23.98;;
38783;SDS011;24531;45.502;12.238;2024-01-30T05:06:23;36.17;;;23.33;;
38783;SDS011;24531;45.502;12.238;2024-01-30T05:08:52;43.00;;;25.15;;
38783;SDS011;24531;45.502;12.238;2024-01-30T05:11:18;34.17;;;22.08;;
38783;SDS011;24531;45.502;12.238;2024-01-30T05:13:44;34.83;;;21.98;;
38783;SDS011;24531;45.502;12.238;2024-01-30T05:16:09;36.65;;;23.00;;
38783;SDS011;24531;45.502;12.238;2024-01-30T05:18:35;37.20;;;22.25;;
38783;SDS011;24531;45.502;12.238;2024-01-30T05:21:01;35.38;;;21.63;;
38783;SDS011;24531;45.502;12.238;2024-01-30T05:23:27;36.83;;;22.88;;
38783;SDS011;24531;45.502;12.238;2024-01-30T05:25:53;33.92;;;23.02;;
38783;SDS011;24531;45.502;12.238;2024-01-30T05:28:18;36.88;;;23.05;;
38783;SDS011;24531;45.502;12.238;2024-01-30T05:30:44;36.83;;;22.23;;
38783;SDS011;24531;45.502;12.238;2024-01-30T05:33:09;35.58;;;22.85;;
38783;SDS011;24531;45.502;12.238;2024-01-30T05:35:37;34.03;;;21.60;;
38783;SDS011;24531;45.502;12.238;2024-01-30T05:38:03;35.33;;;22.27;;
38783;SDS011;24531;45.502;12.238;2024-01-30T05:40:29;34.58;;;21.05;;
38783;SDS011;24531;45.502;12.238;2024-01-30T05:42:55;33.72;;;20.45;;
38783;SDS011;24531;45.502;12.238;2024-01-30T05:45:20;36.40;;;21.75;;
38783;SDS011;24531;45.502;12.238;2024-01-30T05:47:48;37.15;;;21.90;;
38783;SDS011;24531;45.502;12.238;2024-01-30T05:50:14;36.28;;;21.30;;
38783;SDS011;24531;45.502;12.238;2024-01-30T05:52:39;46.28;;;27.05;;
38783;SDS011;24531;45.502;12.238;2024-01-30T05:55:05;62.17;;;36.35;;
38783;SDS011;24531;45.502;12.238;2024-01-30T05:57:31;47.80;;;26.67;;
38783;SDS011;24531;45.502;12.238;2024-01-30T05:59:57;73.97;;;36.33;;
38783;SDS011;24531;45.502;12.238;2024-01-30T06:02:23;77.80;;;36.80;;
38783;SDS011;24531;45.502;12.238;2024-01-30T06:04:48;106.10;;;50.67;;
38783;SDS011;24531;45.502;12.238;2024-01-30T06:07:14;120.15;;;54.15;;
38783;SDS011;24531;45.502;12.238;2024-01-30T06:09:39;99.57;;;44.72;;
38783;SDS011;24531;45.502;12.238;2024-01-30T06:12:06;56.20;;;28.48;;
38783;SDS011;24531;45.502;12.238;2024-01-30T06:14:32;75.55;;;38.33;;
38783;SDS011;24531;45.502;12.238;2024-01-30T06:16:58;534.67;;;281.17;;
38783;SDS011;24531;45.502;12.238;2024-01-30T06:19:24;262.13;;;116.95;;
38783;SDS011;24531;45.502;12.238;2024-01-30T06:21:49;137.02;;;60.13;;
38783;SDS011;24531;45.502;12.238;2024-01-30T06:24:15;119.13;;;55.35;;
38783;SDS011;24531;45.502;12.238;2024-01-30T06:26:40;127.38;;;65.63;;
38783;SDS011;24531;45.502;12.238;2024-01-30T06:29:06;139.70;;;77.55;;
38783;SDS011;24531;45.502;12.238;2024-01-30T06:31:32;63.58;;;35.50;;
38783;SDS011;24531;45.502;12.238;2024-01-30T06:33:58;54.55;;;31.95;;
38783;SDS011;24531;45.502;12.238;2024-01-30T06:36:23;48.63;;;27.17;;
38783;SDS011;24531;45.502;12.238;2024-01-30T06:38:49;46.95;;;26.95;;
38783;SDS011;24531;45.502;12.238;2024-01-30T06:41:15;42.17;;;24.25;;
38783;SDS011;24531;45.502;12.238;2024-01-30T06:43:40;50.08;;;31.52;;
38783;SDS011;24531;45.502;12.238;2024-01-30T06:46:06;38.50;;;24.48;;
38783;SDS011;24531;45.502;12.238;2024-01-30T06:48:32;33.88;;;22.00;;
38783;SDS011;24531;45.502;12.238;2024-01-30T06:50:57;41.25;;;27.80;;
38783;SDS011;24531;45.502;12.238;2024-01-30T06:53:23;38.72;;;23.27;;
38783;SDS011;24531;45.502;12.238;2024-01-30T06:55:51;40.75;;;25.08;;
38783;SDS011;24531;45.502;12.238;2024-01-30T06:58:17;32.05;;;20.13;;
38783;SDS011;24531;45.502;12.238;2024-01-30T07:00:42;39.53;;;26.63;;
38783;SDS011;24531;45.502;12.238;2024-01-30T07:03:11;46.83;;;30.63;;
38783;SDS011;24531;45.502;12.238;2024-01-30T07:05:40;45.75;;;29.27;;
38783;SDS011;24531;45.502;12.238;2024-01-30T07:08:06;38.53;;;22.88;;
38783;SDS011;24531;45.502;12.238;2024-01-30T07:10:32;43.53;;;25.52;;
38783;SDS011;24531;45.502;12.238;2024-01-30T07:12:58;38.42;;;23.40;;
38783;SDS011;24531;45.502;12.238;2024-01-30T07:15:25;60.05;;;36.85;;
38783;SDS011;24531;45.502;12.238;2024-01-30T07:17:50;70.25;;;42.67;;
38783;SDS011;24531;45.502;12.238;2024-01-30T07:20:16;53.03;;;33.20;;
38783;SDS011;24531;45.502;12.238;2024-01-30T07:22:45;41.17;;;26.05;;
38783;SDS011;24531;45.502;12.238;2024-01-30T07:25:11;48.00;;;27.02;;
38783;SDS011;24531;45.502;12.238;2024-01-30T07:27:37;45.95;;;30.08;;
38783;SDS011;24531;45.502;12.238;2024-01-30T07:30:02;44.08;;;29.35;;
38783;SDS011;24531;45.502;12.238;2024-01-30T07:32:28;43.60;;;28.25;;
38783;SDS011;24531;45.502;12.238;2024-01-30T07:34:54;51.95;;;37.58;;
38783;SDS011;24531;45.502;12.238;2024-01-30T07:37:19;36.92;;;25.33;;
38783;SDS011;24531;45.502;12.238;2024-01-30T07:39:46;34.60;;;22.70;;
38783;SDS011;24531;45.502;12.238;2024-01-30T07:42:12;38.70;;;23.92;;
38783;SDS011;24531;45.502;12.238;2024-01-30T07:44:38;42.28;;;29.13;;
38783;SDS011;24531;45.502;12.238;2024-01-30T07:47:04;42.25;;;26.83;;
38783;SDS011;24531;45.502;12.238;2024-01-30T07:49:30;36.00;;;23.65;;
38783;SDS011;24531;45.502;12.238;2024-01-30T07:51:59;34.15;;;22.50;;
38783;SDS011;24531;45.502;12.238;2024-01-30T07:54:25;31.40;;;21.05;;
38783;SDS011;24531;45.502;12.238;2024-01-30T07:56:50;33.50;;;21.38;;
38783;SDS011;24531;45.502;12.238;2024-01-30T07:59:16;34.83;;;20.85;;
38783;SDS011;24531;45.502;12.238;2024-01-30T08:01:42;32.35;;;20.65;;
38783;SDS011;24531;45.502;12.238;2024-01-30T08:04:08;32.95;;;21.73;;
38783;SDS011;24531;45.502;12.238;2024-01-30T08:06:33;38.63;;;22.45;;
38783;SDS011;24531;45.502;12.238;2024-01-30T08:08:59;36.22;;;22.85;;
38783;SDS011;24531;45.502;12.238;2024-01-30T08:11:25;34.38;;;22.50;;
38783;SDS011;24531;45.502;12.238;2024-01-30T08:13:52;33.45;;;21.98;;
38783;SDS011;24531;45.502;12.238;2024-01-30T08:16:18;35.20;;;22.33;;
38783;SDS011;24531;45.502;12.238;2024-01-30T08:18:43;38.72;;;22.17;;
38783;SDS011;24531;45.502;12.238;2024-01-30T08:21:09;34.58;;;22.52;;
38783;SDS011;24531;45.502;12.238;2024-01-30T08:23:34;43.67;;;22.83;;
38783;SDS011;24531;45.502;12.238;2024-01-30T08:26:00;38.05;;;23.58;;
38783;SDS011;24531;45.502;12.238;2024-01-30T08:28:26;35.13;;;23.02;;
38783;SDS011;24531;45.502;12.238;2024-01-30T08:30:52;35.83;;;23.40;;
38783;SDS011;24531;45.502;12.238;2024-01-30T08:33:18;37.78;;;22.65;;
38783;SDS011;24531;45.502;12.238;2024-01-30T08:35:43;35.50;;;23.25;;
38783;SDS011;24531;45.502;12.238;2024-01-30T08:38:09;34.42;;;23.35;;
38783;SDS011;24531;45.502;12.238;2024-01-30T08:40:34;38.92;;;23.92;;
38783;SDS011;24531;45.502;12.238;2024-01-30T08:43:00;35.35;;;23.23;;
38783;SDS011;24531;45.502;12.238;2024-01-30T08:45:26;34.78;;;22.38;;
38783;SDS011;24531;45.502;12.238;2024-01-30T08:47:51;33.45;;;22.15;;
38783;SDS011;24531;45.502;12.238;2024-01-30T08:50:17;34.67;;;21.70;;
38783;SDS011;24531;45.502;12.238;2024-01-30T08:52:43;31.70;;;21.33;;
38783;SDS011;24531;45.502;12.238;2024-01-30T08:55:08;38.60;;;22.95;;
38783;SDS011;24531;45.502;12.238;2024-01-30T08:57:34;36.70;;;21.15;;
38783;SDS011;24531;45.502;12.238;2024-01-30T09:00:00;32.95;;;22.08;;
38783;SDS011;24531;45.502;12.238;2024-01-30T09:02:29;37.28;;;22.20;;
38783;SDS011;24531;45.502;12.238;2024-01-30T09:04:54;32.63;;;21.48;;
38783;SDS011;24531;45.502;12.238;2024-01-30T09:07:20;34.25;;;22.70;;
38783;SDS011;24531;45.502;12.238;2024-01-30T09:09:46;35.75;;;22.38;;
38783;SDS011;24531;45.502;12.238;2024-01-30T09:12:11;37.38;;;21.83;;
38783;SDS011;24531;45.502;12.238;2024-01-30T09:14:38;32.47;;;21.85;;
38783;SDS011;24531;45.502;12.238;2024-01-30T09:17:05;34.58;;;22.63;;
38783;SDS011;24531;45.502;12.238;2024-01-30T09:19:31;34.55;;;20.95;;
38783;SDS011;24531;45.502;12.238;2024-01-30T09:21:56;29.77;;;20.65;;
38783;SDS011;24531;45.502;12.238;2024-01-30T09:24:22;31.73;;;21.80;;
38783;SDS011;24531;45.502;12.238;2024-01-30T09:26:48;30.02;;;20.48;;
38783;SDS011;24531;45.502;12.238;2024-01-30T09:29:13;32.65;;;21.38;;
38783;SDS011;24531;45.502;12.238;2024-01-30T09:31:39;34.15;;;20.75;;
38783;SDS011;24531;45.502;12.238;2024-01-30T09:34:07;33.75;;;22.10;;
38783;SDS011;24531;45.502;12.238;2024-01-30T09:36:33;27.05;;;18.98;;
38783;SDS011;24531;45.502;12.238;2024-01-30T09:38:58;35.05;;;21.65;;
38783;SDS011;24531;45.502;12.238;2024-01-30T09:41:25;35.53;;;21.70;;
38783;SDS011;24531;45.502;12.238;2024-01-30T09:43:53;33.97;;;21.80;;
38783;SDS011;24531;45.502;12.238;2024-01-30T09:46:22;37.42;;;22.48;;
38783;SDS011;24531;45.502;12.238;2024-01-30T09:48:52;32.90;;;21.27;;
38783;SDS011;24531;45.502;12.238;2024-01-30T09:51:20;32.60;;;20.92;;
38783;SDS011;24531;45.502;12.238;2024-01-30T09:53:47;35.67;;;22.10;;
38783;SDS011;24531;45.502;12.238;2024-01-30T09:56:14;33.47;;;20.63;;
38783;SDS011;24531;45.502;12.238;2024-01-30T09:58:39;32.55;;;20.20;;
38783;SDS011;24531;45.502;12.238;2024-01-30T10:01:05;30.38;;;20.77;;
38783;SDS011;24531;45.502;12.238;2024-01-30T10:03:31;32.25;;;20.85;;
38783;SDS011;24531;45.502;12.238;2024-01-30T10:05:57;33.65;;;21.35;;
38783;SDS011;24531;45.502;12.238;2024-01-30T10:08:23;32.75;;;21.08;;
38783;SDS011;24531;45.502;12.238;2024-01-30T10:10:49;34.60;;;22.27;;
38783;SDS011;24531;45.502;12.238;2024-01-30T10:13:15;34.90;;;23.27;;
38783;SDS011;24531;45.502;12.238;2024-01-30T10:15:41;35.78;;;23.45;;
38783;SDS011;24531;45.502;12.238;2024-01-30T10:18:10;32.95;;;21.15;;
38783;SDS011;24531;45.502;12.238;2024-01-30T10:20:36;34.72;;;21.90;;
38783;SDS011;24531;45.502;12.238;2024-01-30T10:23:02;36.90;;;21.70;;
38783;SDS011;24531;45.502;12.238;2024-01-30T10:25:29;30.55;;;21.38;;
38783;SDS011;24531;45.502;12.238;2024-01-30T10:27:56;30.80;;;20.30;;
38783;SDS011;24531;45.502;12.238;2024-01-30T10:30:22;33.70;;;22.80;;
38783;SDS011;24531;45.502;12.238;2024-01-30T10:32:48;32.22;;;21.80;;
38783;SDS011;24531;45.502;12.238;2024-01-30T10:35:14;31.42;;;20.95;;
38783;SDS011;24531;45.502;12.238;2024-01-30T10:37:41;39.03;;;22.23;;
38783;SDS011;24531;45.502;12.238;2024-01-30T10:40:08;34.65;;;21.52;;
38783;SDS011;24531;45.502;12.238;2024-01-30T10:42:36;33.47;;;21.67;;
38783;SDS011;24531;45.502;12.238;2024-01-30T10:45:07;36.85;;;22.85;;
38783;SDS011;24531;45.502;12.238;2024-01-30T10:47:34;32.65;;;21.42;;
38783;SDS011;24531;45.502;12.238;2024-01-30T10:50:04;33.92;;;21.15;;
38783;SDS011;24531;45.502;12.238;2024-01-30T10:52:32;30.70;;;20.85;;
38783;SDS011;24531;45.502;12.238;2024-01-30T10:54:58;30.02;;;20.27;;
38783;SDS011;24531;45.502;12.238;2024-01-30T10:57:26;30.67;;;20.20;;
38783;SDS011;24531;45.502;12.238;2024-01-30T10:59:56;35.15;;;19.98;;
38783;SDS011;24531;45.502;12.238;2024-01-30T11:02:23;29.10;;;20.48;;
38783;SDS011;24531;45.502;12.238;2024-01-30T11:04:49;31.25;;;20.23;;
38783;SDS011;24531;45.502;12.238;2024-01-30T11:07:24;33.20;;;22.73;;
38783;SDS011;24531;45.502;12.238;2024-01-30T11:09:51;29.23;;;20.23;;
38783;SDS011;24531;45.502;12.238;2024-01-30T11:12:27;28.98;;;19.17;;
38783;SDS011;24531;45.502;12.238;2024-01-30T11:15:02;32.17;;;20.55;;
38783;SDS011;24531;45.502;12.238;2024-01-30T11:20:26;30.02;;;19.25;;
38783;SDS011;24531;45.502;12.238;2024-01-30T11:22:56;31.58;;;19.20;;
38783;SDS011;24531;45.502;12.238;2024-01-30T11:25:22;34.95;;;20.67;;
38783;SDS011;24531;45.502;12.238;2024-01-30T11:27:50;27.33;;;18.70;;
38783;SDS011;24531;45.502;12.238;2024-01-30T11:30:35;28.00;;;18.83;;
38783;SDS011;24531;45.502;12.238;2024-01-30T11:33:05;29.58;;;18.33;;
38783;SDS011;24531;45.502;12.238;2024-01-30T11:35:32;33.08;;;19.75;;
38783;SDS011;24531;45.502;12.238;2024-01-30T11:37:59;29.63;;;19.52;;
38783;SDS011;24531;45.502;12.238;2024-01-30T11:40:27;28.00;;;19.67;;
38783;SDS011;24531;45.502;12.238;2024-01-30T11:42:54;32.03;;;18.67;;
38783;SDS011;24531;45.502;12.238;2024-01-30T11:45:20;30.55;;;19.50;;
38783;SDS011;24531;45.502;12.238;2024-01-30T11:47:46;27.63;;;17.90;;
38783;SDS011;24531;45.502;12.238;2024-01-30T11:50:12;35.92;;;20.05;;
38783;SDS011;24531;45.502;12.238;2024-01-30T11:52:37;26.73;;;17.77;;
38783;SDS011;24531;45.502;12.238;2024-01-30T11:55:03;26.52;;;17.85;;
38783;SDS011;24531;45.502;12.238;2024-01-30T11:57:29;27.67;;;17.45;;
38783;SDS011;24531;45.502;12.238;2024-01-30T11:59:55;28.88;;;17.80;;
38783;SDS011;24531;45.502;12.238;2024-01-30T12:02:21;31.23;;;19.67;;
38783;SDS011;24531;45.502;12.238;2024-01-30T12:04:47;30.38;;;18.75;;
38783;SDS011;24531;45.502;12.238;2024-01-30T12:07:12;33.78;;;21.05;;
38783;SDS011;24531;45.502;12.238;2024-01-30T12:09:41;29.00;;;20.00;;
38783;SDS011;24531;45.502;12.238;2024-01-30T12:12:07;31.92;;;19.50;;
38783;SDS011;24531;45.502;12.238;2024-01-30T12:14:37;33.22;;;21.55;;
38783;SDS011;24531;45.502;12.238;2024-01-30T12:17:06;41.00;;;21.73;;
38783;SDS011;24531;45.502;12.238;2024-01-30T12:19:33;40.45;;;21.95;;
38783;SDS011;24531;45.502;12.238;2024-01-30T12:21:59;33.28;;;21.00;;
38783;SDS011;24531;45.502;12.238;2024-01-30T12:24:28;30.15;;;20.33;;
38783;SDS011;24531;45.502;12.238;2024-01-30T12:26:59;37.85;;;20.77;;
38783;SDS011;24531;45.502;12.238;2024-01-30T12:29:25;34.20;;;21.13;;
38783;SDS011;24531;45.502;12.238;2024-01-30T12:31:53;33.28;;;20.80;;
38783;SDS011;24531;45.502;12.238;2024-01-30T12:34:20;40.67;;;20.83;;
38783;SDS011;24531;45.502;12.238;2024-01-30T12:36:49;29.92;;;20.73;;
38783;SDS011;24531;45.502;12.238;2024-01-30T12:39:15;31.75;;;19.95;;
38783;SDS011;24531;45.502;12.238;2024-01-30T12:41:41;34.50;;;21.73;;
38783;SDS011;24531;45.502;12.238;2024-01-30T12:44:07;30.77;;;20.33;;
38783;SDS011;24531;45.502;12.238;2024-01-30T12:46:34;32.55;;;20.05;;
38783;SDS011;24531;45.502;12.238;2024-01-30T12:49:00;29.90;;;19.00;;
38783;SDS011;24531;45.502;12.238;2024-01-30T12:51:25;33.30;;;19.38;;
38783;SDS011;24531;45.502;12.238;2024-01-30T12:53:51;29.83;;;18.73;;
38783;SDS011;24531;45.502;12.238;2024-01-30T12:56:17;33.03;;;18.40;;
38783;SDS011;24531;45.502;12.238;2024-01-30T12:58:42;35.10;;;20.02;;
38783;SDS011;24531;45.502;12.238;2024-01-30T13:01:08;30.25;;;17.95;;
38783;SDS011;24531;45.502;12.238;2024-01-30T13:03:34;31.80;;;19.92;;
38783;SDS011;24531;45.502;12.238;2024-01-30T13:06:00;26.88;;;17.73;;
38783;SDS011;24531;45.502;12.238;2024-01-30T13:08:26;30.75;;;19.83;;
38783;SDS011;24531;45.502;12.238;2024-01-30T13:10:52;27.33;;;17.27;;
38783;SDS011;24531;45.502;12.238;2024-01-30T13:13:17;35.75;;;20.92;;
38783;SDS011;24531;45.502;12.238;2024-01-30T13:15:43;28.15;;;18.27;;
38783;SDS011;24531;45.502;12.238;2024-01-30T13:18:09;27.58;;;18.67;;
38783;SDS011;24531;45.502;12.238;2024-01-30T13:20:35;32.40;;;19.80;;
38783;SDS011;24531;45.502;12.238;2024-01-30T13:23:00;29.95;;;19.85;;
38783;SDS011;24531;45.502;12.238;2024-01-30T13:25:26;31.13;;;19.95;;
38783;SDS011;24531;45.502;12.238;2024-01-30T13:27:52;28.42;;;18.83;;
38783;SDS011;24531;45.502;12.238;2024-01-30T13:30:17;29.00;;;17.95;;
38783;SDS011;24531;45.502;12.238;2024-01-30T13:32:43;32.88;;;20.20;;
38783;SDS011;24531;45.502;12.238;2024-01-30T13:35:09;29.85;;;19.30;;
38783;SDS011;24531;45.502;12.238;2024-01-30T13:37:35;30.13;;;18.88;;
38783;SDS011;24531;45.502;12.238;2024-01-30T13:40:01;32.90;;;21.08;;
38783;SDS011;24531;45.502;12.238;2024-01-30T13:42:31;29.02;;;20.33;;
38783;SDS011;24531;45.502;12.238;2024-01-30T13:44:57;33.95;;;19.35;;
38783;SDS011;24531;45.502;12.238;2024-01-30T13:47:23;35.88;;;19.67;;
38783;SDS011;24531;45.502;12.238;2024-01-30T13:49:49;30.58;;;18.83;;
38783;SDS011;24531;45.502;12.238;2024-01-30T13:52:14;33.08;;;21.13;;
38783;SDS011;24531;45.502;12.238;2024-01-30T13:54:40;36.88;;;20.50;;
38783;SDS011;24531;45.502;12.238;2024-01-30T13:57:05;31.10;;;19.05;;
38783;SDS011;24531;45.502;12.238;2024-01-30T13:59:32;32.72;;;19.25;;
38783;SDS011;24531;45.502;12.238;2024-01-30T14:01:58;35.58;;;20.13;;
38783;SDS011;24531;45.502;12.238;2024-01-30T14:04:24;34.05;;;20.65;;
38783;SDS011;24531;45.502;12.238;2024-01-30T14:06:49;30.33;;;19.33;;